Time;durP1;ratioP1;P1;durP2;ratioP2;P2;SDS_P1;SDS_P2;PMS_P1;PMS_P2;Temp;Humidity;BMP_temperature;BMP_pressure;BME280_temperature;BME280_humidity;BME280_pressure;Samples;Min_cycle;Max_cycle;Signal;HPM_P1;HPM_P2
2021/08/28 00:02:05;;;;;;;2.33;1.10;;;24.30;91.50;;;;;;4960650;28;20059;-86
2021/08/28 00:04:34;;;;;;;1.35;1.02;;;24.10;92.10;;;;;;4963069;28;20081;-86
2021/08/28 00:07:03;;;;;;;1.30;0.98;;;24.10;92.10;;;;;;4966077;28;20247;-86
2021/08/28 00:09:31;;;;;;;2.15;1.20;;;24.20;92.00;;;;;;4962502;28;20047;-85
2021/08/28 00:11:59;;;;;;;2.13;0.90;;;24.20;91.90;;;;;;4963111;28;20381;-86
2021/08/28 00:14:27;;;;;;;1.45;1.25;;;24.30;92.00;;;;;;4963099;28;20062;-86
2021/08/28 00:16:55;;;;;;;2.72;1.58;;;24.30;91.80;;;;;;4962351;28;20074;-86
2021/08/28 00:19:24;;;;;;;1.40;1.00;;;24.30;92.00;;;;;;4963363;28;20035;-86
2021/08/28 00:21:54;;;;;;;1.63;1.02;;;24.30;91.60;;;;;;4974177;28;20043;-87
2021/08/28 00:24:22;;;;;;;2.22;1.30;;;24.40;91.20;;;;;;4960477;28;20055;-86
2021/08/28 00:26:50;;;;;;;1.63;1.08;;;24.50;90.80;;;;;;4960699;28;20420;-87
2021/08/28 00:29:19;;;;;;;1.20;1.00;;;24.40;90.80;;;;;;4961627;28;20058;-85
2021/08/28 00:31:47;;;;;;;1.73;0.82;;;24.40;90.70;;;;;;4964939;28;20066;-87
2021/08/28 00:34:15;;;;;;;1.20;0.90;;;24.50;90.10;;;;;;4954597;28;20035;-87
2021/08/28 00:36:44;;;;;;;2.17;1.20;;;24.50;90.30;;;;;;4953787;28;20058;-87
2021/08/28 00:39:12;;;;;;;1.05;0.80;;;24.40;90.30;;;;;;4954052;28;20043;-86
2021/08/28 00:41:41;;;;;;;3.60;1.45;;;24.40;90.40;;;;;;4957700;28;20063;-85
2021/08/28 00:44:09;;;;;;;2.20;1.10;;;24.50;90.40;;;;;;4947013;28;20145;-87
2021/08/28 00:46:37;;;;;;;2.90;1.10;;;24.40;90.40;;;;;;4958145;28;20074;-87
2021/08/28 00:49:05;;;;;;;1.85;1.20;;;24.40;90.70;;;;;;4960473;28;20057;-86
2021/08/28 00:51:34;;;;;;;1.75;1.20;;;24.40;90.70;;;;;;4965808;28;20053;-86
2021/08/28 00:54:04;;;;;;;2.92;1.40;;;24.30;90.80;;;;;;4960237;28;20038;-86
2021/08/28 00:56:33;;;;;;;1.27;1.00;;;24.30;90.90;;;;;;4960615;28;20047;-87
2021/08/28 00:59:01;;;;;;;2.05;1.00;;;24.30;91.10;;;;;;4944689;28;20483;-86
2021/08/28 01:01:33;;;;;;;1.67;1.27;;;24.30;91.10;;;;;;4974093;28;20042;-86
2021/08/28 01:04:02;;;;;;;1.58;1.00;;;24.20;91.20;;;;;;4961254;28;20054;-86
2021/08/28 01:06:40;;;;;;;2.90;1.33;;;24.20;91.20;;;;;;4956210;28;20116;-86
2021/08/28 01:09:32;;;;;;;1.80;1.10;;;24.30;90.90;;;;;;4961213;28;20065;-87
2021/08/28 01:12:20;;;;;;;2.03;1.13;;;24.30;90.60;;;;;;4958402;28;20141;-86
2021/08/28 01:15:01;;;;;;;1.73;1.20;;;24.30;90.80;;;;;;4959013;28;20043;-86
2021/08/28 01:17:34;;;;;;;2.22;1.13;;;24.30;90.90;;;;;;4957545;28;20051;-86
2021/08/28 01:20:09;;;;;;;2.47;1.17;;;24.30;91.00;;;;;;4976091;28;20082;-87
2021/08/28 01:22:56;;;;;;;2.03;1.25;;;24.20;91.20;;;;;;4955089;28;20075;-87
2021/08/28 01:25:54;;;;;;;1.73;1.15;;;24.00;91.60;;;;;;4958718;28;20151;-87
2021/08/28 01:28:31;;;;;;;1.88;1.13;;;24.10;91.30;;;;;;4962073;28;20165;-86
2021/08/28 01:31:01;;;;;;;2.00;1.20;;;24.10;91.20;;;;;;4956530;28;20150;-86
2021/08/28 01:33:30;;;;;;;4.00;0.82;;;24.10;91.20;;;;;;4968007;28;20078;-86
2021/08/28 01:36:01;;;;;;;9.00;1.17;;;24.20;91.00;;;;;;4950713;28;20058;-86
2021/08/28 01:38:48;;;;;;;1.35;0.98;;;24.20;90.70;;;;;;4949849;28;20048;-86
2021/08/28 01:41:26;;;;;;;2.17;1.13;;;24.20;90.80;;;;;;4950824;28;20125;-87
2021/08/28 01:43:58;;;;;;;1.65;1.13;;;24.20;90.70;;;;;;4951501;28;20505;-88
2021/08/28 01:46:30;;;;;;;1.45;1.02;;;24.10;90.70;;;;;;4958861;28;20580;-86
2021/08/28 01:48:58;;;;;;;1.65;1.10;;;24.20;90.50;;;;;;4957849;28;20054;-86
2021/08/28 01:51:29;;;;;;;2.72;1.05;;;24.20;90.60;;;;;;4961076;28;20043;-86
2021/08/28 01:54:01;;;;;;;2.25;1.20;;;24.20;90.20;;;;;;4945232;28;20051;-85
2021/08/28 01:56:31;;;;;;;1.52;1.20;;;24.00;90.30;;;;;;4956957;28;20184;-87
2021/08/28 01:59:00;;;;;;;1.65;1.30;;;23.70;90.60;;;;;;4977059;28;20047;-85
2021/08/28 02:01:40;;;;;;;2.28;1.35;;;23.70;91.60;;;;;;4963695;28;20046;-87
2021/08/28 02:04:08;;;;;;;4.55;1.40;;;23.90;91.00;;;;;;4960231;28;20050;-86
2021/08/28 02:06:43;;;;;;;1.40;0.88;;;23.80;91.20;;;;;;4948437;28;20117;-87
2021/08/28 02:09:21;;;;;;;1.17;0.80;;;24.00;90.70;;;;;;4970443;28;20085;-87
2021/08/28 02:11:57;;;;;;;1.50;1.08;;;24.00;90.60;;;;;;4958249;28;20405;-86
2021/08/28 02:14:32;;;;;;;2.07;1.20;;;24.00;90.60;;;;;;4961300;28;20525;-85
2021/08/28 02:17:07;;;;;;;3.33;1.13;;;24.00;90.60;;;;;;4967460;28;20061;-85
2021/08/28 02:19:39;;;;;;;4.25;1.48;;;23.90;90.50;;;;;;4974682;28;20065;-86
2021/08/28 02:22:44;;;;;;;3.88;1.25;;;24.00;91.90;;;;;;4961112;28;20416;-86
2021/08/28 02:25:38;;;;;;;4.38;1.48;;;23.90;92.60;;;;;;4966083;28;20129;-85
2021/08/28 02:28:10;;;;;;;1.60;1.02;;;23.90;93.20;;;;;;4939598;28;20058;-86
2021/08/28 02:30:39;;;;;;;2.97;1.10;;;23.60;92.50;;;;;;4959879;28;20129;-86
2021/08/28 02:33:15;;;;;;;1.30;0.90;;;23.60;92.40;;;;;;4954382;28;20047;-85
2021/08/28 02:35:58;;;;;;;1.50;1.05;;;23.50;92.10;;;;;;4942990;28;20043;-86
2021/08/28 02:38:28;;;;;;;1.20;0.70;;;23.60;91.90;;;;;;4962499;28;20124;-86
2021/08/28 02:40:59;;;;;;;1.20;0.90;;;23.60;92.20;;;;;;4943510;28;20042;-85
2021/08/28 02:43:29;;;;;;;1.20;1.05;;;23.60;91.90;;;;;;4960528;28;20229;-85
2021/08/28 02:46:53;;;;;;;2.55;0.88;;;23.50;91.60;;;;;;4967561;28;20058;-86
2021/08/28 02:49:24;;;;;;;1.85;1.00;;;23.40;92.20;;;;;;4981760;28;20062;-85
2021/08/28 02:51:54;;;;;;;1.38;1.10;;;23.50;92.10;;;;;;4959893;28;20054;-86
2021/08/28 02:54:31;;;;;;;1.92;0.80;;;23.40;92.00;;;;;;4959716;28;20049;-86
2021/08/28 02:57:00;;;;;;;3.47;1.10;;;23.30;92.60;;;;;;4963358;28;20045;-87
2021/08/28 02:59:31;;;;;;;1.50;0.98;;;23.30;92.30;;;;;;4942869;28;20509;-85
2021/08/28 03:02:03;;;;;;;1.02;0.88;;;23.50;92.10;;;;;;4959228;28;20082;-86
2021/08/28 03:04:35;;;;;;;1.63;0.90;;;23.50;91.40;;;;;;4943387;28;20074;-85
2021/08/28 03:07:05;;;;;;;3.00;1.20;;;23.60;91.70;;;;;;4943185;28;20471;-85
2021/08/28 03:09:36;;;;;;;1.33;1.02;;;23.60;91.50;;;;;;4969709;28;20062;-86
2021/08/28 03:12:05;;;;;;;1.48;0.93;;;23.50;92.00;;;;;;4968931;28;20153;-86
2021/08/28 03:14:34;;;;;;;2.00;0.95;;;23.20;92.80;;;;;;4971852;28;20519;-86
2021/08/28 03:17:04;;;;;;;2.33;0.80;;;23.40;92.50;;;;;;4963503;28;20066;-86
2021/08/28 03:19:46;;;;;;;2.25;0.85;;;23.40;92.10;;;;;;4956865;28;20086;-86
2021/08/28 03:22:20;;;;;;;1.98;1.38;;;23.30;92.10;;;;;;4943671;28;20051;-86
2021/08/28 03:24:57;;;;;;;1.65;0.85;;;23.20;92.30;;;;;;4960419;28;20082;-86
2021/08/28 03:27:32;;;;;;;3.42;1.13;;;23.30;92.60;;;;;;4956666;28;20470;-86
2021/08/28 03:30:02;;;;;;;1.98;1.10;;;23.40;92.50;;;;;;4937994;28;20141;-87
2021/08/28 03:32:35;;;;;;;1.85;0.90;;;23.30;92.90;;;;;;4957752;28;20066;-86
2021/08/28 03:35:07;;;;;;;1.10;0.82;;;23.40;92.70;;;;;;4963670;28;20046;-86
2021/08/28 03:37:37;;;;;;;1.85;1.08;;;23.30;92.10;;;;;;4955363;28;20317;-85
2021/08/28 03:40:07;;;;;;;1.38;0.90;;;23.20;93.00;;;;;;4978448;28;20503;-86
2021/08/28 03:42:37;;;;;;;3.40;1.00;;;23.30;93.10;;;;;;4978546;28;20121;-85
2021/08/28 03:45:08;;;;;;;2.67;0.98;;;23.40;92.70;;;;;;4968881;28;20042;-86
2021/08/28 03:47:46;;;;;;;1.23;0.85;;;23.30;92.90;;;;;;4967897;28;20049;-86
2021/08/28 03:54:04;;;;;;;1.40;0.85;;;23.60;92.30;;;;;;4970172;28;20043;-85
2021/08/28 03:56:51;;;;;;;2.17;1.00;;;23.60;92.40;;;;;;4964477;28;20153;-84
2021/08/28 03:59:19;;;;;;;1.50;1.10;;;23.60;92.50;;;;;;4972083;28;20098;-86
2021/08/28 04:02:08;;;;;;;1.42;1.10;;;23.50;92.40;;;;;;4973835;28;20043;-87
2021/08/28 04:04:46;;;;;;;1.65;1.10;;;23.50;92.50;;;;;;4961737;28;20098;-85
2021/08/28 04:07:24;;;;;;;1.45;0.95;;;23.50;92.70;;;;;;4959451;28;20051;-86
2021/08/28 04:09:54;;;;;;;1.52;0.88;;;23.50;92.50;;;;;;4960422;28;20062;-85
2021/08/28 04:12:41;;;;;;;3.33;1.23;;;23.50;92.70;;;;;;4959557;28;20051;-86
2021/08/28 04:15:11;;;;;;;1.45;0.70;;;23.60;92.70;;;;;;4958011;28;20043;-86
2021/08/28 04:17:58;;;;;;;2.25;1.10;;;23.60;92.50;;;;;;4957446;28;20057;-86
2021/08/28 04:20:28;;;;;;;3.22;1.10;;;23.60;92.50;;;;;;4960011;28;20045;-85
2021/08/28 04:23:03;;;;;;;2.92;1.10;;;23.60;92.60;;;;;;4968590;28;20517;-86
2021/08/28 04:26:06;;;;;;;2.92;1.00;;;23.50;93.00;;;;;;4925268;28;20463;-85
2021/08/28 04:28:35;;;;;;;1.30;0.80;;;23.40;93.50;;;;;;4920307;29;20081;-85
2021/08/28 04:31:15;;;;;;;3.65;1.15;;;23.40;93.70;;;;;;4958212;28;20046;-84
2021/08/28 04:33:45;;;;;;;1.50;1.00;;;23.40;93.70;;;;;;4925660;28;20041;-85
2021/08/28 04:36:13;;;;;;;2.10;1.10;;;23.40;93.60;;;;;;4938389;28;20103;-85
2021/08/28 04:38:42;;;;;;;2.88;1.00;;;23.50;93.50;;;;;;4908726;28;20040;-86
2021/08/28 04:41:12;;;;;;;1.98;1.05;;;23.50;93.50;;;;;;4925799;28;20051;-86
2021/08/28 04:43:40;;;;;;;2.03;1.10;;;23.40;93.50;;;;;;4953308;28;20051;-85
2021/08/28 04:46:29;;;;;;;2.25;1.10;;;23.50;93.50;;;;;;4941778;28;20086;-86
2021/08/28 04:49:00;;;;;;;1.52;1.00;;;23.60;93.20;;;;;;4957308;28;20520;-85
2021/08/28 04:51:54;;;;;;;1.67;1.08;;;23.60;93.00;;;;;;4936825;28;20377;-86
2021/08/28 04:54:23;;;;;;;1.75;1.00;;;23.60;93.10;;;;;;4922395;28;20043;-86
2021/08/28 04:56:56;;;;;;;2.17;1.13;;;23.60;93.20;;;;;;4927029;28;20102;-86
2021/08/28 04:59:26;;;;;;;1.15;0.70;;;23.60;93.20;;;;;;4921201;28;20096;-87
2021/08/28 05:02:14;;;;;;;3.20;1.50;;;23.50;93.40;;;;;;4922407;28;20054;-86
2021/08/28 05:04:51;;;;;;;1.85;0.93;;;23.40;94.00;;;;;;4962861;28;20050;-85
2021/08/28 05:07:20;;;;;;;2.35;1.10;;;23.40;94.60;;;;;;4962528;28;20067;-85
2021/08/28 05:10:09;;;;;;;1.15;0.90;;;23.30;95.30;;;;;;4953122;28;20564;-86
2021/08/28 05:12:41;;;;;;;1.85;1.25;;;23.30;96.10;;;;;;4961462;28;20057;-85
2021/08/28 05:15:15;;;;;;;3.80;1.20;;;23.20;96.60;;;;;;4957228;28;20054;-86
2021/08/28 05:17:49;;;;;;;1.85;1.13;;;23.00;96.10;;;;;;4960594;28;20058;-85
2021/08/28 05:20:22;;;;;;;3.28;1.52;;;22.90;96.60;;;;;;4946620;28;20074;-86
2021/08/28 05:23:08;;;;;;;;;;;22.90;96.70;;;;;;4963553;28;20058;-86
2021/08/28 05:25:56;;;;;;;8.18;3.45;;;22.90;96.70;;;;;;4971797;28;19930;-85
2021/08/28 05:28:27;;;;;;;5.35;2.58;;;22.60;96.70;;;;;;4918574;29;20048;-85
2021/08/28 05:30:56;;;;;;;4.95;2.05;;;22.60;96.70;;;;;;4928880;29;20079;-84
2021/08/28 05:33:25;;;;;;;2.63;1.20;;;22.50;96.70;;;;;;4907715;29;20232;-86
2021/08/28 05:35:55;;;;;;;3.55;1.20;;;22.40;96.70;;;;;;4924348;28;20475;-85
2021/08/28 05:38:46;;;;;;;3.65;1.50;;;22.20;96.70;;;;;;4920584;29;20063;-86
2021/08/28 05:41:17;;;;;;;3.97;1.35;;;22.10;96.70;;;;;;4909738;29;20125;-83
2021/08/28 05:43:47;;;;;;;3.40;1.27;;;21.90;96.70;;;;;;4931416;28;20111;-83
2021/08/28 05:46:33;;;;;;;3.78;1.40;;;21.90;96.70;;;;;;4914274;29;20059;-82
2021/08/28 05:49:16;;;;;;;4.32;1.25;;;21.60;96.70;;;;;;4921049;29;20138;-81
2021/08/28 05:51:55;;;;;;;3.03;1.20;;;21.40;96.70;;;;;;4901240;29;20143;-85
2021/08/28 05:54:23;;;;;;;5.35;1.40;;;21.00;96.70;;;;;;4931705;29;20058;-81
2021/08/28 05:56:53;;;;;;;4.35;1.42;;;20.90;96.70;;;;;;4924704;29;20081;-81
2021/08/28 05:59:22;;;;;;;2.35;1.08;;;20.80;96.70;;;;;;4939339;28;20059;-80
2021/08/28 06:01:52;;;;;;;3.10;1.45;;;20.70;96.70;;;;;;4917095;29;20044;-80
2021/08/28 06:04:23;;;;;;;3.25;1.60;;;20.60;96.70;;;;;;4924438;28;20075;-80
2021/08/28 06:07:11;;;;;;;3.50;1.45;;;20.70;96.70;;;;;;4935431;28;20552;-79
2021/08/28 06:09:39;;;;;;;2.47;1.20;;;20.60;96.70;;;;;;4928126;29;20043;-80
2021/08/28 06:12:26;;;;;;;2.88;1.52;;;20.60;96.70;;;;;;4923953;29;20422;-78
2021/08/28 06:15:28;;;;;;;2.65;1.30;;;20.60;96.70;;;;;;4921084;29;20067;-78
2021/08/28 06:18:02;;;;;;;3.80;1.30;;;20.70;96.70;;;;;;4907554;29;20044;-78
2021/08/28 06:20:30;;;;;;;4.63;1.83;;;20.40;96.70;;;;;;4900172;29;20067;-78
2021/08/28 06:23:00;;;;;;;3.10;1.33;;;20.30;96.70;;;;;;4907127;29;20081;-87
2021/08/28 06:25:44;;;;;;;3.80;1.40;;;20.60;96.70;;;;;;4905546;29;20052;-87
2021/08/28 06:28:13;;;;;;;3.15;1.10;;;20.70;96.70;;;;;;4922671;29;20043;-86
2021/08/28 06:30:45;;;;;;;4.15;1.42;;;20.70;96.70;;;;;;4941763;28;20223;-87
2021/08/28 06:33:13;;;;;;;2.88;1.52;;;20.70;96.70;;;;;;4924013;29;20182;-86
2021/08/28 06:35:42;;;;;;;3.22;1.20;;;20.80;96.70;;;;;;4923555;29;20813;-86
2021/08/28 06:38:36;;;;;;;2.78;1.50;;;20.70;96.70;;;;;;4926854;29;20087;-87
2021/08/28 06:41:24;;;;;;;6.13;3.78;;;20.70;96.70;;;;;;4942304;28;20684;-87
2021/08/28 06:44:12;;;;;;;7.40;4.97;;;20.80;96.70;;;;;;4920363;28;20059;-83
2021/08/28 06:47:08;;;;;;;9.35;7.22;;;20.70;96.70;;;;;;4944603;28;20055;-82
2021/08/28 06:50:03;;;;;;;6.93;5.43;;;20.70;96.70;;;;;;4935386;29;20138;-86
2021/08/28 06:53:03;;;;;;;19.98;14.93;;;20.70;96.70;;;;;;4961420;28;20138;-90
2021/08/28 06:55:41;;;;;;;12.02;8.25;;;20.80;96.70;;;;;;4946542;28;20110;-88
2021/08/28 06:58:27;;;;;;;;;;;21.00;96.70;;;;;;4945152;28;20062;-89
2021/08/28 07:01:14;;;;;;;7.32;5.10;;;21.20;96.70;;;;;;4948296;28;20383;-89
2021/08/28 07:04:05;;;;;;;7.60;3.75;;;21.20;96.70;;;;;;4942819;28;20141;-85
2021/08/28 07:07:00;;;;;;;7.18;4.50;;;21.20;96.70;;;;;;4948093;28;20043;-85
2021/08/28 07:09:28;;;;;;;9.75;7.13;;;21.20;96.70;;;;;;4946463;28;20724;-87
2021/08/28 07:11:57;;;;;;;10.18;8.05;;;21.00;96.70;;;;;;4933606;29;20247;-86
2021/08/28 07:14:27;;;;;;;10.07;8.05;;;21.20;96.70;;;;;;4933485;28;20446;-86
2021/08/28 07:16:56;;;;;;;14.98;7.90;;;21.00;96.70;;;;;;4952505;28;20134;-83
2021/08/28 07:19:26;;;;;;;8.95;6.15;;;21.00;96.70;;;;;;4950272;28;20485;-86
2021/08/28 07:21:54;;;;;;;10.05;5.32;;;21.20;96.70;;;;;;4946530;28;20133;-87
2021/08/28 07:24:26;;;;;;;12.85;8.02;;;21.20;96.70;;;;;;4939016;28;20045;-87
2021/08/28 07:26:56;;;;;;;11.80;8.63;;;21.00;96.70;;;;;;4941101;28;20493;-85
2021/08/28 07:29:50;;;;;;;11.23;7.25;;;20.90;96.70;;;;;;4966239;28;20050;-83
2021/08/28 07:32:19;;;;;;;8.38;5.50;;;21.00;96.70;;;;;;4965402;28;20096;-84
2021/08/28 07:34:50;;;;;;;5.47;3.28;;;20.90;96.70;;;;;;4966987;28;20093;-82
2021/08/28 07:37:19;;;;;;;101.25;91.47;;;20.90;96.70;;;;;;4963851;28;20047;-82
2021/08/28 07:39:47;;;;;;;30.05;25.50;;;21.30;96.70;;;;;;4967810;28;20046;-88
2021/08/28 07:42:16;;;;;;;24.77;22.08;;;21.40;96.70;;;;;;4956957;28;20062;-88
2021/08/28 07:44:45;;;;;;;7.78;6.75;;;21.30;96.70;;;;;;4974036;28;20484;-87
2021/08/28 07:47:15;;;;;;;8.07;6.75;;;21.40;96.70;;;;;;4949951;28;20505;-86
2021/08/28 07:49:43;;;;;;;4.95;2.97;;;21.50;96.70;;;;;;4971388;28;20070;-88
2021/08/28 07:52:17;;;;;;;3.50;2.78;;;21.60;96.70;;;;;;4965792;28;20046;-85
2021/08/28 07:54:46;;;;;;;4.32;2.10;;;21.50;96.70;;;;;;4965315;28;20058;-86
2021/08/28 07:57:21;;;;;;;3.22;1.92;;;21.30;96.70;;;;;;4951517;28;20142;-86
2021/08/28 07:59:50;;;;;;;3.42;1.75;;;21.30;96.70;;;;;;4967613;28;20077;-83
2021/08/28 08:02:19;;;;;;;2.80;1.60;;;21.40;96.70;;;;;;4953346;28;20143;-84
2021/08/28 08:04:48;;;;;;;3.58;1.60;;;21.30;96.70;;;;;;4939152;29;20528;-89
2021/08/28 08:07:47;;;;;;;2.65;1.38;;;21.30;96.70;;;;;;4949200;28;20059;-85
2021/08/28 08:10:35;;;;;;;3.03;1.30;;;21.30;96.70;;;;;;4945716;28;20053;-80
2021/08/28 08:13:36;;;;;;;2.53;1.50;;;21.30;96.70;;;;;;4963940;28;20059;-83
2021/08/28 08:16:26;;;;;;;4.00;1.42;;;21.30;96.70;;;;;;4960282;28;20177;-82
2021/08/28 08:19:17;;;;;;;3.42;1.40;;;21.30;96.70;;;;;;4967967;28;20104;-86
2021/08/28 08:22:04;;;;;;;3.33;1.55;;;21.50;96.70;;;;;;4965794;28;20145;-83
2021/08/28 08:24:45;;;;;;;89.55;78.60;;;21.50;96.70;;;;;;4963009;28;20059;-82
2021/08/28 08:27:36;;;;;;;24.95;19.90;;;21.50;96.70;;;;;;4948278;28;20074;-85
2021/08/28 08:30:27;;;;;;;23.40;19.38;;;21.40;96.70;;;;;;4962698;28;20073;-92
2021/08/28 08:33:09;;;;;;;11.50;8.43;;;21.50;96.70;;;;;;4998637;28;20047;-86
2021/08/28 08:35:38;;;;;;;3.35;2.78;;;21.30;96.70;;;;;;4959032;28;20631;-88
2021/08/28 08:38:07;;;;;;;3.20;2.47;;;21.30;96.70;;;;;;4970694;28;20071;-86
2021/08/28 08:40:37;;;;;;;2.75;2.05;;;21.40;96.70;;;;;;4963702;28;20046;-87
2021/08/28 08:43:07;;;;;;;2.97;2.10;;;21.50;96.70;;;;;;4968072;28;20413;-83
2021/08/28 08:45:36;;;;;;;3.75;1.83;;;21.60;96.70;;;;;;4974639;28;20137;-84
2021/08/28 08:48:06;;;;;;;3.05;1.63;;;21.50;96.70;;;;;;4961017;28;20461;-82
2021/08/28 08:50:35;;;;;;;2.50;1.38;;;21.50;96.70;;;;;;4961181;28;20043;-81
2021/08/28 08:53:05;;;;;;;2.80;1.67;;;21.50;96.70;;;;;;4963634;28;20480;-81
2021/08/28 08:55:41;;;;;;;5.05;1.80;;;21.50;96.70;;;;;;4950326;28;20429;-81
2021/08/28 08:58:17;;;;;;;2.45;1.27;;;21.30;96.70;;;;;;4962236;28;20070;-81
2021/08/28 09:01:01;;;;;;;3.45;1.60;;;21.40;96.70;;;;;;4964529;28;20074;-81
2021/08/28 09:03:37;;;;;;;2.13;1.42;;;21.50;96.70;;;;;;4963239;28;20505;-81
2021/08/28 09:06:09;;;;;;;2.08;1.40;;;21.50;96.70;;;;;;4965138;28;20158;-81
2021/08/28 09:08:41;;;;;;;3.03;1.48;;;21.60;96.70;;;;;;4960181;28;20060;-79
2021/08/28 09:11:22;;;;;;;1.42;1.10;;;21.70;96.70;;;;;;4964192;28;20059;-81
2021/08/28 09:13:51;;;;;;;2.85;1.42;;;21.70;96.70;;;;;;4959506;28;20047;-81
2021/08/28 09:16:30;;;;;;;1.80;1.20;;;21.70;96.70;;;;;;4963754;28;20066;-81
2021/08/28 09:18:59;;;;;;;1.65;1.08;;;21.70;96.70;;;;;;4958425;28;20043;-81
2021/08/28 09:21:32;;;;;;;1.85;1.30;;;21.80;96.70;;;;;;4974259;28;20476;-81
2021/08/28 09:24:01;;;;;;;3.38;1.50;;;22.00;96.70;;;;;;4962614;28;20078;-80
2021/08/28 09:26:35;;;;;;;1.95;1.27;;;21.90;96.70;;;;;;4954250;28;20493;-80
2021/08/28 09:29:05;;;;;;;1.90;1.05;;;22.00;96.70;;;;;;4962044;28;20050;-79
2021/08/28 09:31:45;;;;;;;1.20;0.95;;;22.20;96.70;;;;;;4959399;28;20051;-79
2021/08/28 09:34:22;;;;;;;1.30;0.90;;;22.40;96.70;;;;;;4961830;28;20125;-80
2021/08/28 09:36:57;;;;;;;3.10;1.50;;;22.50;96.70;;;;;;4953691;28;20035;-79
2021/08/28 09:39:39;;;;;;;3.42;1.23;;;22.70;96.70;;;;;;4956388;28;20179;-79
2021/08/28 09:42:11;;;;;;;3.35;1.00;;;22.80;96.70;;;;;;4951734;28;20484;-80
2021/08/28 09:44:42;;;;;;;1.83;1.23;;;23.00;96.70;;;;;;4964338;28;20121;-78
2021/08/28 09:47:12;;;;;;;2.33;1.30;;;23.20;96.70;;;;;;4973986;28;20476;-80
2021/08/28 09:49:41;;;;;;;2.50;1.15;;;23.20;96.70;;;;;;4959920;28;20039;-79
2021/08/28 09:52:12;;;;;;;1.90;1.17;;;23.30;96.70;;;;;;4959376;28;20055;-80
2021/08/28 09:54:41;;;;;;;1.25;0.80;;;23.20;96.70;;;;;;4961174;28;20146;-80
2021/08/28 09:57:11;;;;;;;1.85;0.80;;;23.30;96.70;;;;;;4958801;28;20521;-78
2021/08/28 09:59:41;;;;;;;0.98;0.63;;;23.40;96.70;;;;;;4957690;28;20339;-82
2021/08/28 10:02:11;;;;;;;2.03;0.63;;;23.40;96.70;;;;;;4947139;28;20043;-81
2021/08/28 10:04:51;;;;;;;1.45;0.60;;;23.30;96.70;;;;;;4962263;28;20057;-75
2021/08/28 10:07:22;;;;;;;68.72;61.92;;;23.50;96.70;;;;;;4956432;28;20051;-87
2021/08/28 10:09:54;;;;;;;34.50;30.90;;;23.60;96.70;;;;;;4966785;28;20105;-85
2021/08/28 10:12:26;;;;;;;9.23;8.30;;;23.70;96.70;;;;;;4964280;28;20305;-86
2021/08/28 10:14:55;;;;;;;4.25;1.60;;;23.70;96.70;;;;;;4965341;28;20062;-81
2021/08/28 10:17:26;;;;;;;3.33;1.30;;;23.70;96.70;;;;;;4962857;28;20105;-77
2021/08/28 10:19:55;;;;;;;1.42;0.95;;;23.50;96.70;;;;;;4955336;28;20517;-78
2021/08/28 10:22:25;;;;;;;1.23;0.77;;;23.60;96.70;;;;;;4957997;28;20699;-76
2021/08/28 10:24:57;;;;;;;0.80;0.63;;;23.80;96.70;;;;;;4963282;28;20062;-79
2021/08/28 10:27:27;;;;;;;2.00;0.70;;;23.70;96.70;;;;;;4961905;28;20055;-79
2021/08/28 10:29:56;;;;;;;1.38;0.70;;;23.90;96.70;;;;;;4959427;28;20342;-80
2021/08/28 10:32:26;;;;;;;1.25;0.70;;;23.90;96.70;;;;;;4962526;28;20564;-79
2021/08/28 10:34:54;;;;;;;1.15;0.65;;;24.00;96.70;;;;;;4970749;28;20054;-82
2021/08/28 10:37:22;;;;;;;2.38;0.55;;;24.30;96.70;;;;;;4957124;28;20053;-80
2021/08/28 10:39:52;;;;;;;1.13;0.50;;;24.50;96.70;;;;;;4959785;28;20031;-81
2021/08/28 10:42:22;;;;;;;1.25;0.50;;;24.70;96.70;;;;;;4959741;28;20046;-80
2021/08/28 10:44:52;;;;;;;1.30;0.65;;;24.60;96.70;;;;;;4957430;28;20035;-82
2021/08/28 10:47:27;;;;;;;;;;;24.60;96.70;;;;;;4964155;28;20516;-81
2021/08/28 10:50:08;;;;;;;0.98;0.60;;;24.70;96.70;;;;;;4962140;28;19973;-81
2021/08/28 10:52:38;;;;;;;1.30;0.50;;;24.60;96.70;;;;;;4947787;28;20046;-81
2021/08/28 10:55:10;;;;;;;1.83;0.50;;;24.70;96.70;;;;;;4967488;28;20034;-81
2021/08/28 10:57:39;;;;;;;1.08;0.50;;;24.60;96.70;;;;;;4961919;28;20058;-82
2021/08/28 11:00:13;;;;;;;0.68;0.40;;;24.50;96.70;;;;;;4959554;28;20405;-81
2021/08/28 11:02:50;;;;;;;2.20;0.70;;;24.70;96.70;;;;;;4962387;28;20070;-81
2021/08/28 11:05:21;;;;;;;0.82;0.70;;;24.90;96.70;;;;;;4960932;28;20053;-81
2021/08/28 11:07:51;;;;;;;0.93;0.40;;;25.20;96.70;;;;;;4960919;28;20405;-81
2021/08/28 11:10:22;;;;;;;2.10;0.47;;;25.40;96.70;;;;;;4964080;28;20062;-81
2021/08/28 11:12:56;;;;;;;0.75;0.50;;;25.50;96.70;;;;;;4978727;28;20046;-82
2021/08/28 11:15:42;;;;;;;1.77;0.50;;;25.40;96.70;;;;;;4966665;28;20169;-80
2021/08/28 11:18:35;;;;;;;0.88;0.57;;;25.60;96.70;;;;;;4959263;28;20047;-79
2021/08/28 11:21:07;;;;;;;1.60;0.70;;;25.60;96.70;;;;;;4978657;28;20050;-79
2021/08/28 11:23:39;;;;;;;0.93;0.40;;;25.60;96.70;;;;;;4959831;28;20051;-80
2021/08/28 11:26:08;;;;;;;1.33;0.60;;;25.90;96.70;;;;;;4958777;28;20501;-79
2021/08/28 11:28:38;;;;;;;1.42;0.60;;;26.20;96.70;;;;;;4941063;28;20047;-80
2021/08/28 11:31:09;;;;;;;3.28;0.45;;;26.30;96.70;;;;;;4960421;28;20062;-82
2021/08/28 11:33:38;;;;;;;1.10;0.60;;;26.20;95.60;;;;;;4960842;28;20138;-86
2021/08/28 11:36:18;;;;;;;0.93;0.73;;;26.10;95.90;;;;;;4963609;28;20050;-85
2021/08/28 11:38:48;;;;;;;1.48;0.70;;;26.10;95.40;;;;;;4946753;28;20082;-84
2021/08/28 11:41:22;;;;;;;2.70;0.47;;;26.10;95.90;;;;;;4964441;28;20050;-86
2021/08/28 11:43:52;;;;;;;1.13;0.55;;;26.30;95.20;;;;;;4963589;28;20053;-85
2021/08/28 11:46:26;;;;;;;0.73;0.50;;;26.50;95.00;;;;;;4965086;28;20059;-85
2021/08/28 11:48:56;;;;;;;0.55;0.50;;;26.70;93.50;;;;;;4962541;28;20109;-86
2021/08/28 11:51:26;;;;;;;1.05;0.60;;;26.80;92.80;;;;;;4957631;28;20122;-85
2021/08/28 11:53:56;;;;;;;1.35;0.80;;;27.00;92.90;;;;;;4960203;28;20073;-86
2021/08/28 11:56:29;;;;;;;2.30;1.33;;;27.00;91.70;;;;;;4965016;28;20058;-86
2021/08/28 11:59:00;;;;;;;1.05;0.82;;;27.00;90.50;;;;;;4975020;28;20047;-86
2021/08/28 12:01:36;;;;;;;2.08;0.57;;;26.90;89.80;;;;;;4981841;28;20045;-89
2021/08/28 12:04:06;;;;;;;1.15;0.63;;;26.80;87.60;;;;;;4971669;28;20054;-87
2021/08/28 12:06:36;;;;;;;1.50;0.43;;;26.80;88.00;;;;;;4975319;28;20055;-86
2021/08/28 12:09:06;;;;;;;0.82;0.77;;;26.90;87.80;;;;;;4966140;28;20100;-86
2021/08/28 12:11:36;;;;;;;1.20;0.60;;;27.00;88.20;;;;;;4966993;28;20125;-87
2021/08/28 12:14:07;;;;;;;1.73;0.82;;;27.10;87.50;;;;;;4964546;28;20060;-86
2021/08/28 12:16:39;;;;;;;1.05;0.50;;;27.30;87.10;;;;;;4966555;28;20046;-88
2021/08/28 12:19:09;;;;;;;1.30;0.60;;;27.20;86.10;;;;;;4975668;28;20109;-87
2021/08/28 12:21:39;;;;;;;1.63;0.50;;;27.40;86.50;;;;;;4973047;28;20054;-87
2021/08/28 12:24:17;;;;;;;2.40;0.70;;;27.50;85.10;;;;;;4965681;28;20205;-85
2021/08/28 12:26:49;;;;;;;0.77;0.57;;;27.30;85.10;;;;;;4964173;28;20055;-85
2021/08/28 12:29:25;;;;;;;0.85;0.65;;;27.30;86.00;;;;;;4967112;28;20042;-86
2021/08/28 12:31:57;;;;;;;1.13;0.70;;;27.30;85.30;;;;;;4968630;28;20133;-86
2021/08/28 12:34:30;;;;;;;1.48;0.45;;;27.30;84.50;;;;;;4967861;28;20043;-85
2021/08/28 12:37:00;;;;;;;1.15;0.70;;;27.30;84.60;;;;;;4965437;28;20537;-85
2021/08/28 12:39:29;;;;;;;0.90;0.60;;;27.20;84.10;;;;;;4965131;28;20556;-86
2021/08/28 12:41:58;;;;;;;1.90;0.60;;;27.30;84.20;;;;;;4951293;28;20061;-86
2021/08/28 12:44:30;;;;;;;1.38;0.70;;;27.30;83.90;;;;;;4966077;28;20047;-85
2021/08/28 12:47:02;;;;;;;1.92;0.90;;;27.50;83.80;;;;;;4963134;28;20106;-84
2021/08/28 12:49:31;;;;;;;1.48;1.15;;;27.50;82.70;;;;;;4957913;28;20113;-86
2021/08/28 12:52:01;;;;;;;2.13;1.00;;;27.60;84.20;;;;;;4967317;28;20058;-86
2021/08/28 12:54:32;;;;;;;1.00;0.70;;;27.80;85.00;;;;;;4960703;28;20049;-87
2021/08/28 12:57:03;;;;;;;1.45;0.63;;;28.00;85.10;;;;;;4964361;28;20050;-87
2021/08/28 12:59:39;;;;;;;1.33;0.52;;;28.10;83.20;;;;;;4958433;28;20047;-80
2021/08/28 13:02:13;;;;;;;;;;;28.00;83.50;;;;;;4962767;28;20157;-83
2021/08/28 13:04:43;;;;;;;1.35;0.70;;;28.20;82.60;;;;;;4945233;28;20024;-80
2021/08/28 13:07:15;;;;;;;1.02;0.68;;;28.10;81.70;;;;;;4975592;28;20046;-80
2021/08/28 13:09:59;;;;;;;2.15;0.80;;;28.10;81.40;;;;;;4964038;28;20445;-81
2021/08/28 13:12:45;;;;;;;1.10;0.73;;;28.10;81.40;;;;;;4969255;28;20500;-82
2021/08/28 13:15:31;;;;;;;1.00;0.60;;;28.00;81.40;;;;;;4966853;28;20564;-80
2021/08/28 13:18:03;;;;;;;0.82;0.60;;;27.90;82.60;;;;;;4961092;28;20659;-79
2021/08/28 13:20:34;;;;;;;1.15;0.75;;;28.00;83.50;;;;;;4961263;28;20043;-79
2021/08/28 13:23:06;;;;;;;1.75;0.70;;;28.10;83.40;;;;;;4961549;28;20051;-79
2021/08/28 13:25:37;;;;;;;1.67;0.90;;;28.10;83.50;;;;;;4963460;28;20169;-82
2021/08/28 13:28:24;;;;;;;2.03;0.77;;;28.10;83.30;;;;;;4969682;28;20292;-81
2021/08/28 13:30:55;;;;;;;1.77;0.70;;;28.20;83.40;;;;;;4958840;28;20540;-78